createdAt,value
2023-04-01T00:10:05.849Z,7.57
2023-04-01T00:40:08.711Z,8.50
2023-04-01T01:10:12.888Z,14.20
2023-04-01T01:40:15.757Z,14.63
2023-04-01T02:10:19.452Z,13.47
2023-04-01T02:40:22.296Z,12.87
2023-04-01T03:10:26.200Z,13.30
2023-04-01T03:40:29.072Z,13.23
2023-04-01T04:10:33.377Z,13.30
2023-04-01T04:40:36.208Z,10.10
2023-04-01T05:10:39.802Z,9.73
2023-04-01T05:40:42.649Z,8.70
2023-04-01T06:10:47.300Z,10.67
2023-04-01T06:40:50.147Z,11.35
2023-04-01T07:10:54.627Z,11.55
2023-04-01T07:40:57.561Z,10.40
2023-04-01T08:11:01.270Z,9.67
2023-04-01T08:41:04.102Z,11.55
2023-04-01T09:11:07.920Z,9.50
2023-04-01T09:41:10.971Z,12.47
2023-04-01T10:11:18.063Z,12.97
2023-04-01T10:41:20.912Z,13.87
2023-04-01T11:11:25.807Z,21.45
2023-04-01T11:41:28.852Z,16.45
2023-04-01T12:11:32.941Z,16.30
2023-04-01T12:41:35.842Z,11.10
2023-04-01T13:11:39.422Z,11.47
2023-04-01T13:41:42.783Z,10.37
2023-04-01T14:11:45.982Z,10.20
2023-04-01T14:41:49.276Z,8.40
2023-04-01T15:11:53.212Z,10.47
2023-04-01T15:41:56.591Z,10.57
2023-04-01T16:12:00.184Z,9.83
2023-04-01T16:42:03.509Z,10.40
2023-04-01T17:12:07.144Z,12.47
2023-04-01T17:42:10.131Z,10.23
2023-04-01T18:12:14.071Z,9.23
2023-04-01T18:42:16.927Z,7.03
2023-04-01T19:12:21.676Z,11.25
2023-04-01T19:42:24.577Z,7.87
2023-04-01T20:12:28.943Z,6.60
2023-04-01T20:42:31.813Z,7.80
2023-04-01T21:12:34.965Z,8.27
2023-04-01T21:42:37.847Z,10.63
2023-04-01T22:12:41.932Z,9.15
2023-04-01T22:42:44.841Z,10.45
2023-04-01T23:12:49.534Z,8.60
2023-04-01T23:42:52.497Z,11.03
